Terminal Aerodrome Forecast
Issued by NWS Dodge City, KS

Home | Current Version | Previous Version | Text Only | Print | Product List | Glossary On
Versions: 1 2 3 4 5 6 7 8 9 10 11 12 13 14 15 16 17 18 19 20 21 22 23 24 25 26
475
FTUS43 KDDC 030726 AAA
TAFDDC
TAF AMD
KDDC 030726Z 0307/0406 06008KT 5SM -SN OVC070
     FM030900 04005KT 4SM -SN OVC020
     FM031100 04005KT 3SM -SN OVC008
     FM031300 04005KT 3SM BR OVC003
     FM031700 09006KT P6SM OVC003=

USA.gov is the U.S. government's official web portal to all federal, state and local government web resources and services.